createdAt,value
2023-02-07T00:00:31.742Z,69.04
2023-02-07T00:05:36.337Z,68.49
2023-02-07T00:10:41.803Z,68.59
2023-02-07T00:15:55.648Z,68.68
2023-02-07T00:21:03.635Z,69.17
2023-02-07T00:26:09.608Z,69.56
2023-02-07T00:31:19.859Z,70.05
2023-02-07T00:36:24.040Z,70.36
2023-02-07T00:41:29.352Z,70.45
2023-02-07T00:46:36.817Z,70.12
2023-02-07T00:51:41.887Z,69.67
2023-02-07T00:56:46.345Z,70.25
2023-02-07T01:01:53.250Z,70.16
2023-02-07T01:06:57.614Z,70.62
2023-02-07T01:12:07.695Z,70.19
2023-02-07T01:17:09.720Z,69.86
2023-02-07T01:22:14.093Z,69.76
2023-02-07T01:27:27.127Z,69.68
2023-02-07T01:32:34.915Z,70.23
2023-02-07T01:37:51.440Z,70.05
2023-02-07T01:42:57.200Z,70.35
2023-02-07T01:48:05.363Z,70.54
2023-02-07T01:53:15.910Z,70.64
2023-02-07T01:58:26.252Z,70.62
2023-02-07T02:04:27.482Z,70.63
2023-02-07T02:09:56.335Z,70.27
2023-02-07T02:15:16.947Z,69.74
2023-02-07T02:21:06.442Z,70.13
2023-02-07T02:26:42.150Z,70.62
2023-02-07T02:32:31.999Z,70.36
2023-02-07T02:38:37.669Z,70.92
2023-02-07T02:45:02.001Z,70.87
2023-02-07T02:50:29.004Z,70.45
2023-02-07T02:56:13.300Z,70.80
2023-02-07T03:02:17.964Z,70.21
2023-02-07T03:08:25.997Z,69.70
2023-02-07T03:13:40.640Z,69.71
2023-02-07T03:18:46.693Z,69.80
2023-02-07T03:23:53.097Z,69.56
2023-02-07T03:29:02.808Z,70.00
2023-02-07T03:34:17.484Z,69.80
2023-02-07T03:39:19.616Z,69.22
2023-02-07T03:44:24.546Z,69.60
2023-02-07T03:49:26.208Z,70.15
2023-02-07T03:54:29.277Z,71.13
2023-02-07T03:59:33.509Z,71.16
2023-02-07T04:04:35.680Z,70.31
2023-02-07T04:09:37.184Z,69.64
2023-02-07T04:14:38.710Z,69.28
2023-02-07T04:19:40.421Z,69.39
2023-02-07T04:24:41.849Z,69.56
2023-02-07T04:29:43.790Z,69.64
2023-02-07T04:34:45.389Z,69.99
2023-02-07T04:39:46.961Z,70.21
2023-02-07T04:44:56.062Z,70.86
2023-02-07T04:49:57.756Z,71.50
2023-02-07T04:55:43.461Z,71.58
2023-02-07T05:01:44.979Z,71.28
2023-02-07T05:08:06.067Z,71.08
2023-02-07T05:13:07.765Z,70.87
2023-02-07T05:18:09.601Z,70.60
2023-02-07T05:23:14.452Z,69.86
2023-02-07T05:28:19.889Z,70.19
2023-02-07T05:33:24.693Z,69.46
2023-02-07T05:38:29.433Z,69.32
2023-02-07T05:43:31.166Z,68.44
2023-02-07T05:49:35.347Z,67.93
2023-02-07T05:55:02.371Z,67.89
2023-02-07T06:00:04.497Z,68.39
2023-02-07T06:05:22.478Z,68.90
2023-02-07T06:10:32.556Z,69.26
2023-02-07T06:15:40.752Z,69.71
2023-02-07T06:20:42.453Z,69.76
2023-02-07T06:25:54.334Z,69.90
2023-02-07T06:32:03.714Z,70.33
2023-02-07T06:38:30.107Z,70.42
2023-02-07T06:43:38.663Z,70.17
2023-02-07T06:48:40.399Z,70.05
2023-02-07T06:53:42.306Z,70.25
2023-02-07T06:58:44.462Z,70.29
2023-02-07T07:03:51.203Z,70.64
2023-02-07T07:09:52.616Z,71.05
2023-02-07T07:15:14.717Z,70.17
2023-02-07T07:20:16.443Z,70.56
2023-02-07T07:25:19.276Z,71.00
2023-02-07T07:30:21.037Z,70.13
2023-02-07T07:35:23.057Z,69.63
2023-02-07T07:40:24.552Z,69.86
2023-02-07T07:45:25.983Z,70.16
2023-02-07T07:50:27.497Z,70.18
2023-02-07T07:55:29.323Z,69.95
2023-02-07T08:00:30.874Z,70.29
2023-02-07T08:05:32.793Z,70.40
2023-02-07T08:10:34.278Z,70.69
2023-02-07T08:15:36.122Z,71.03
2023-02-07T08:20:40.385Z,70.90
2023-02-07T08:25:42.547Z,70.95
2023-02-07T08:30:46.921Z,71.07
2023-02-07T08:35:50.510Z,70.94
2023-02-07T08:40:52.355Z,70.09
2023-02-07T08:45:53.973Z,69.97
2023-02-07T08:50:55.580Z,69.92
2023-02-07T08:55:57.331Z,70.11
2023-02-07T09:00:58.921Z,70.31
2023-02-07T09:06:01.014Z,70.58
2023-02-07T09:11:09.032Z,70.51
2023-02-07T09:16:14.051Z,70.53
2023-02-07T09:21:15.792Z,70.91
2023-02-07T09:26:19.558Z,70.58
2023-02-07T09:31:21.240Z,71.12
2023-02-07T09:36:26.031Z,70.90
2023-02-07T09:41:42.153Z,70.42
2023-02-07T09:46:54.977Z,70.43
2023-02-07T09:52:01.519Z,70.69
2023-02-07T09:57:08.019Z,70.55
2023-02-07T10:02:30.210Z,70.64
2023-02-07T10:07:32.495Z,71.02
2023-02-07T10:12:34.095Z,71.28
2023-02-07T10:17:53.251Z,71.12
2023-02-07T10:22:57.639Z,71.04
2023-02-07T10:28:02.045Z,71.08
2023-02-07T10:33:23.228Z,70.81
2023-02-07T10:38:37.484Z,70.54
2023-02-07T10:43:42.103Z,70.36
2023-02-07T10:48:48.376Z,69.85
2023-02-07T10:54:11.944Z,70.04
2023-02-07T10:59:38.694Z,70.15
2023-02-07T11:04:43.167Z,70.17
2023-02-07T11:09:44.829Z,70.07
2023-02-07T11:15:10.564Z,70.27
2023-02-07T11:20:20.399Z,69.92
2023-02-07T11:25:48.902Z,69.83
2023-02-07T11:30:58.267Z,69.42
2023-02-07T11:36:18.333Z,69.69
2023-02-07T11:41:28.060Z,69.51
2023-02-07T11:46:43.182Z,69.69
2023-02-07T11:51:44.750Z,69.86
2023-02-07T11:57:00.269Z,69.73
2023-02-07T12:02:19.538Z,69.30
2023-02-07T12:07:33.918Z,69.35
2023-02-07T12:12:53.692Z,69.74
2023-02-07T12:18:10.454Z,69.71
2023-02-07T12:23:39.564Z,69.78
2023-02-07T12:28:48.449Z,70.44
2023-02-07T12:34:04.397Z,71.06
2023-02-07T12:39:19.801Z,70.70
2023-02-07T12:44:34.070Z,70.67
2023-02-07T12:50:13.929Z,70.77
2023-02-07T12:55:30.829Z,70.72
2023-02-07T13:00:57.604Z,70.67
2023-02-07T13:06:23.915Z,71.15
2023-02-07T13:12:03.624Z,71.27
2023-02-07T13:17:27.013Z,70.79
2023-02-07T13:22:53.808Z,70.61
2023-02-07T13:28:03.316Z,70.79
2023-02-07T13:33:37.321Z,70.83
2023-02-07T13:38:53.068Z,70.75
2023-02-07T13:44:22.861Z,70.52
2023-02-07T13:49:45.410Z,70.22
2023-02-07T13:55:18.012Z,70.45
2023-02-07T14:00:24.803Z,70.08
2023-02-07T14:05:35.076Z,70.15
2023-02-07T14:10:51.132Z,69.84
2023-02-07T14:15:58.235Z,69.93
2023-02-07T14:21:04.289Z,69.87
2023-02-07T14:26:37.698Z,69.96
2023-02-07T14:31:48.235Z,70.04
2023-02-07T14:37:01.480Z,70.25
2023-02-07T14:42:18.277Z,70.29
2023-02-07T14:47:25.951Z,70.47
2023-02-07T14:52:31.280Z,70.37
2023-02-07T14:57:39.959Z,70.22
2023-02-07T15:02:57.912Z,70.08
2023-02-07T15:08:02.122Z,70.12
2023-02-07T15:13:17.471Z,70.22
2023-02-07T15:18:27.995Z,70.42
2023-02-07T15:23:31.586Z,70.46
2023-02-07T15:28:34.122Z,70.51
2023-02-07T15:33:46.988Z,70.67
2023-02-07T15:38:48.908Z,70.80
2023-02-07T15:43:58.044Z,70.55
2023-02-07T15:49:01.778Z,70.48
2023-02-07T15:54:04.842Z,70.59
2023-02-07T15:59:10.739Z,70.65
2023-02-07T16:04:15.270Z,70.64
2023-02-07T16:09:37.801Z,70.61
2023-02-07T16:14:40.474Z,70.94
2023-02-07T16:19:45.739Z,71.08
2023-02-07T16:24:50.825Z,71.27
2023-02-07T16:30:04.954Z,71.31
2023-02-07T16:35:18.906Z,71.53
2023-02-07T16:40:26.031Z,71.65
2023-02-07T16:45:32.286Z,71.71
2023-02-07T16:50:47.026Z,71.73
2023-02-07T16:55:48.679Z,72.11
2023-02-07T17:00:51.180Z,72.02
2023-02-07T17:05:55.662Z,72.52
2023-02-07T17:11:03.306Z,72.81
2023-02-07T17:16:05.578Z,72.85
2023-02-07T17:21:08.500Z,72.58
2023-02-07T17:26:21.786Z,72.30
2023-02-07T17:31:24.507Z,72.44
2023-02-07T17:36:28.537Z,72.59
2023-02-07T17:41:30.869Z,72.71
2023-02-07T17:46:33.103Z,72.86
2023-02-07T17:51:34.975Z,72.48
2023-02-07T17:56:39.045Z,72.59
2023-02-07T18:01:40.887Z,72.84
2023-02-07T18:06:42.801Z,72.97
2023-02-07T18:11:44.532Z,72.80
2023-02-07T18:16:46.659Z,72.84
2023-02-07T18:21:49.214Z,72.66
2023-02-07T18:26:52.664Z,72.64
2023-02-07T18:31:55.272Z,72.50
2023-02-07T18:36:59.566Z,72.64
2023-02-07T18:42:03.352Z,72.83
2023-02-07T18:47:08.016Z,72.76
2023-02-07T18:52:13.091Z,72.99
2023-02-07T18:57:14.824Z,73.00
2023-02-07T19:02:16.688Z,72.71
2023-02-07T19:07:18.292Z,72.67
2023-02-07T19:12:20.067Z,72.58
2023-02-07T19:17:24.130Z,72.52
2023-02-07T19:22:35.396Z,72.64
2023-02-07T19:27:37.473Z,72.60
2023-02-07T19:32:40.127Z,72.58
2023-02-07T19:37:41.668Z,72.65
2023-02-07T19:42:44.890Z,72.79
2023-02-07T19:47:46.653Z,72.37
2023-02-07T19:52:56.645Z,72.37
2023-02-07T19:57:59.215Z,72.60
2023-02-07T20:03:00.569Z,72.48
2023-02-07T20:08:02.610Z,72.54
2023-02-07T20:13:04.418Z,72.68
2023-02-07T20:18:06.726Z,72.59
2023-02-07T20:23:09.131Z,72.71
2023-02-07T20:28:12.904Z,72.99
2023-02-07T20:33:21.317Z,72.77
2023-02-07T20:38:23.191Z,72.80
2023-02-07T20:43:26.240Z,72.87
2023-02-07T20:48:27.820Z,72.92
2023-02-07T20:53:29.367Z,72.90
2023-02-07T20:58:32.666Z,73.08
2023-02-07T21:03:34.551Z,73.06
2023-02-07T21:08:36.841Z,73.17
2023-02-07T21:13:39.151Z,73.41
2023-02-07T21:18:40.956Z,73.44
2023-02-07T21:23:42.884Z,73.23
2023-02-07T21:28:45.035Z,73.13
2023-02-07T21:33:50.655Z,73.21
2023-02-07T21:38:54.028Z,73.25
2023-02-07T21:43:56.912Z,73.33
2023-02-07T21:49:01.076Z,73.31
2023-02-07T21:54:03.971Z,73.47
2023-02-07T21:59:09.842Z,73.21
2023-02-07T22:04:12.142Z,73.44
2023-02-07T22:10:15.389Z,73.20
2023-02-07T22:15:57.124Z,73.34
2023-02-07T22:21:17.802Z,73.26
2023-02-07T22:27:27.953Z,73.27
2023-02-07T22:33:09.639Z,73.71
2023-02-07T22:38:13.032Z,73.27
2023-02-07T22:43:16.131Z,73.69
2023-02-07T22:48:20.410Z,73.43
2023-02-07T22:53:29.800Z,73.40
2023-02-07T22:58:31.808Z,73.55
2023-02-07T23:03:34.114Z,73.47
2023-02-07T23:08:35.919Z,73.63
2023-02-07T23:13:41.282Z,73.58
2023-02-07T23:18:42.948Z,73.80
2023-02-07T23:23:45.418Z,73.91
2023-02-07T23:28:50.646Z,73.63
2023-02-07T23:33:52.767Z,73.48
2023-02-07T23:39:26.591Z,73.26
2023-02-07T23:44:33.423Z,73.35
2023-02-07T23:49:37.582Z,73.63
2023-02-07T23:54:51.961Z,73.36
2023-02-07T23:59:56.126Z,73.48
